Time;durP1;ratioP1;P1;durP2;ratioP2;P2;SDS_P1;SDS_P2;PMS_P1;PMS_P2;Temp;Humidity;BMP_temperature;BMP_pressure;BME280_temperature;BME280_humidity;BME280_pressure;Samples;Min_cycle;Max_cycle;Signal;HPM_P1;HPM_P2
2023/05/05 00:01:31;;;;;;;9.48;2.85;;;11.10;99.90;;;;;;5074407;28;20446;-92
2023/05/05 00:03:56;;;;;;;9.63;3.45;;;11.20;99.90;;;;;;5091608;28;20090;-92
2023/05/05 00:06:22;;;;;;;8.70;3.25;;;11.20;99.90;;;;;;5108250;28;20086;-92
2023/05/05 00:08:48;;;;;;;10.48;3.85;;;11.20;99.90;;;;;;5090816;28;20040;-91
2023/05/05 00:11:13;;;;;;;13.75;4.03;;;11.10;99.90;;;;;;5090814;28;20051;-93
2023/05/05 00:13:39;;;;;;;10.73;3.30;;;11.20;99.90;;;;;;5107485;28;20398;-93
2023/05/05 00:16:05;;;;;;;10.68;3.80;;;11.10;99.90;;;;;;5091076;28;20651;-94
2023/05/05 00:18:32;;;;;;;11.63;4.10;;;11.20;99.90;;;;;;5074717;28;20050;-92
2023/05/05 00:20:58;;;;;;;10.13;3.88;;;11.10;99.90;;;;;;5076265;28;20044;-92
2023/05/05 00:23:24;;;;;;;7.85;3.58;;;11.20;99.90;;;;;;5093275;28;20042;-94
2023/05/05 00:25:49;;;;;;;9.18;4.00;;;11.10;99.90;;;;;;5090791;28;20075;-93
2023/05/05 00:28:15;;;;;;;9.50;3.35;;;11.10;99.90;;;;;;5107637;28;20138;-94
2023/05/05 00:30:41;;;;;;;14.10;3.80;;;11.10;99.90;;;;;;5089747;28;20043;-93
2023/05/05 00:33:07;;;;;;;9.18;4.18;;;11.10;99.90;;;;;;5093778;28;20496;-96
2023/05/05 00:35:33;;;;;;;19.30;5.53;;;11.00;99.90;;;;;;5074056;28;20073;-92
2023/05/05 00:37:59;;;;;;;10.88;4.45;;;11.00;99.90;;;;;;5090993;28;20088;-94
2023/05/05 00:40:25;;;;;;;16.95;5.13;;;11.00;99.90;;;;;;5090327;28;20050;-93
2023/05/05 00:42:51;;;;;;;8.48;3.60;;;11.00;99.90;;;;;;5074581;28;20070;-96
2023/05/05 00:45:18;;;;;;;9.48;3.97;;;10.90;99.90;;;;;;5073798;28;20047;-96
2023/05/05 00:47:48;;;;;;;10.98;4.25;;;10.90;99.90;;;;;;5089764;28;20047;-96
2023/05/05 00:50:34;;;;;;;11.68;3.78;;;10.90;99.90;;;;;;5090286;28;20051;-94
2023/05/05 00:53:01;;;;;;;10.40;3.60;;;11.60;99.90;;;;;;5089845;28;20058;-95
2023/05/05 00:55:31;;;;;;;12.65;3.88;;;12.00;99.90;;;;;;5091123;28;20454;-94
2023/05/05 00:57:58;;;;;;;8.95;3.97;;;10.90;99.90;;;;;;5074136;28;20077;-95
2023/05/05 01:00:25;;;;;;;11.18;3.65;;;10.80;99.90;;;;;;5107524;28;20095;-94
2023/05/05 01:02:51;;;;;;;9.02;4.00;;;10.80;99.90;;;;;;5090800;27;20058;-96
2023/05/05 01:05:21;;;;;;;8.65;3.65;;;10.80;99.90;;;;;;5090143;28;20418;-95
2023/05/05 01:07:59;;;;;;;9.15;3.97;;;10.80;99.90;;;;;;5108102;28;20076;-94
2023/05/05 01:10:45;;;;;;;8.50;4.32;;;10.70;99.90;;;;;;5102617;28;20028;-94
2023/05/05 01:13:48;;;;;;;13.20;4.18;;;10.70;99.90;;;;;;5139481;27;20106;-95
2023/05/05 01:16:24;;;;;;;10.55;4.00;;;10.60;99.90;;;;;;5111825;28;20399;-93
2023/05/05 01:19:08;;;;;;;11.70;3.63;;;10.60;99.90;;;;;;5089801;28;20387;-93
2023/05/05 01:21:42;;;;;;;6.82;3.45;;;10.60;99.90;;;;;;5107214;28;20081;-93
2023/05/05 01:24:22;;;;;;;7.57;3.70;;;10.50;99.90;;;;;;5106783;28;20044;-96
2023/05/05 01:26:58;;;;;;;11.85;5.75;;;10.50;99.90;;;;;;5090023;28;20504;-94
2023/05/05 01:29:51;;;;;;;11.43;3.95;;;10.50;99.90;;;;;;5091840;28;20505;-94
2023/05/05 01:32:27;;;;;;;10.00;3.60;;;10.50;99.90;;;;;;5089654;28;20082;-94
2023/05/05 01:35:00;;;;;;;14.25;3.85;;;10.40;99.90;;;;;;5089417;28;20373;-94
2023/05/05 01:37:42;;;;;;;6.40;3.35;;;10.40;99.90;;;;;;5107253;28;20515;-95
2023/05/05 01:40:11;;;;;;;12.55;4.05;;;10.40;99.90;;;;;;5089471;28;20051;-95
2023/05/05 01:42:41;;;;;;;5.80;3.28;;;10.40;99.90;;;;;;5107341;28;20046;-94
2023/05/05 01:45:10;;;;;;;9.82;4.15;;;10.30;99.90;;;;;;5090252;28;20047;-94
2023/05/05 01:47:38;;;;;;;8.65;3.92;;;10.30;99.90;;;;;;5105515;28;20046;-95
2023/05/05 01:50:06;;;;;;;7.78;4.05;;;10.40;99.90;;;;;;5089990;28;20036;-94
2023/05/05 01:52:34;;;;;;;7.88;3.92;;;10.30;99.90;;;;;;5071867;28;20500;-95
2023/05/05 01:55:01;;;;;;;11.18;4.35;;;10.30;99.90;;;;;;5089478;28;20130;-93
2023/05/05 01:57:30;;;;;;;14.40;4.55;;;10.60;99.90;;;;;;5088532;28;20616;-94
2023/05/05 01:59:57;;;;;;;9.48;4.35;;;10.20;99.90;;;;;;5090138;28;20028;-95
2023/05/05 02:02:26;;;;;;;10.90;3.90;;;10.20;99.90;;;;;;5072482;28;20040;-95
2023/05/05 02:04:53;;;;;;;11.48;4.35;;;10.20;99.90;;;;;;5088584;28;20043;-94
2023/05/05 02:07:20;;;;;;;7.15;3.67;;;10.30;99.90;;;;;;5089490;28;20071;-94
2023/05/05 02:09:46;;;;;;;7.93;4.18;;;10.20;99.90;;;;;;5071356;28;20040;-94
2023/05/05 02:12:13;;;;;;;10.43;4.07;;;10.20;99.90;;;;;;5072518;28;20047;-94
2023/05/05 02:14:41;;;;;;;10.52;3.75;;;10.20;99.90;;;;;;5087833;28;20036;-95
2023/05/05 02:17:08;;;;;;;8.00;4.03;;;10.20;99.90;;;;;;5087972;28;20035;-93
2023/05/05 02:19:46;;;;;;;8.73;4.07;;;10.20;99.90;;;;;;5071819;28;20036;-93
2023/05/05 02:22:14;;;;;;;10.27;3.63;;;10.20;99.90;;;;;;5087403;28;20087;-94
2023/05/05 02:24:39;;;;;;;10.73;3.67;;;10.20;99.90;;;;;;5089376;28;20075;-93
2023/05/05 02:27:07;;;;;;;11.73;4.07;;;10.20;99.90;;;;;;5072333;28;20051;-94
2023/05/05 02:29:45;;;;;;;16.02;4.30;;;10.30;99.90;;;;;;5090581;28;20039;-94
2023/05/05 02:32:36;;;;;;;8.07;3.90;;;10.30;99.90;;;;;;5107550;28;20131;-95
2023/05/05 02:35:09;;;;;;;16.92;4.03;;;10.30;99.90;;;;;;5089933;28;20051;-93
2023/05/05 02:37:37;;;;;;;11.23;3.80;;;10.30;99.90;;;;;;5090413;28;20047;-94
2023/05/05 02:40:06;;;;;;;10.77;3.97;;;10.30;99.90;;;;;;5072396;28;20032;-95
2023/05/05 02:42:35;;;;;;;12.63;4.35;;;10.30;99.90;;;;;;5088588;28;20521;-94
2023/05/05 02:45:09;;;;;;;9.43;4.18;;;10.40;99.90;;;;;;5088131;28;20050;-94
2023/05/05 02:47:36;;;;;;;12.18;3.83;;;10.40;99.90;;;;;;5088834;28;20075;-96
2023/05/05 02:50:04;;;;;;;11.63;4.25;;;10.40;99.90;;;;;;5071523;28;20093;-95
2023/05/05 02:52:30;;;;;;;11.10;3.95;;;10.40;99.90;;;;;;5087525;28;20054;-95
2023/05/05 02:54:56;;;;;;;9.77;4.18;;;11.40;99.90;;;;;;5088447;28;20092;-94
2023/05/05 02:57:36;;;;;;;9.13;3.80;;;10.40;99.90;;;;;;5091659;28;20388;-95
2023/05/05 03:00:06;;;;;;;11.00;5.47;;;10.40;99.90;;;;;;5090607;28;20043;-94
2023/05/05 03:02:59;;;;;;;18.05;7.25;;;10.40;99.90;;;;;;5088805;28;20076;-94
2023/05/05 03:05:34;;;;;;;12.00;4.07;;;10.40;99.90;;;;;;5089383;28;20075;-94
2023/05/05 03:08:12;;;;;;;9.40;3.75;;;10.40;99.90;;;;;;5075566;28;20047;-95
2023/05/05 03:10:50;;;;;;;9.50;4.20;;;10.40;99.90;;;;;;5107305;28;20048;-96
2023/05/05 03:13:19;;;;;;;8.35;3.33;;;10.40;99.90;;;;;;5089884;28;20042;-95
2023/05/05 03:15:51;;;;;;;14.50;3.42;;;10.40;99.90;;;;;;5090931;28;20043;-96
2023/05/05 03:18:18;;;;;;;12.23;4.47;;;10.30;99.90;;;;;;5073221;28;20493;-96
2023/05/05 03:20:45;;;;;;;8.93;4.07;;;10.30;99.90;;;;;;5102233;28;20047;-94
2023/05/05 03:23:12;;;;;;;8.55;4.00;;;10.70;99.90;;;;;;5103358;28;20059;-95
2023/05/05 03:25:48;;;;;;;10.18;3.70;;;10.30;99.90;;;;;;5087695;28;20031;-94
2023/05/05 03:28:15;;;;;;;11.93;4.13;;;10.20;99.90;;;;;;5108733;28;20039;-95
2023/05/05 03:30:41;;;;;;;10.40;3.92;;;10.30;99.90;;;;;;5090977;28;20103;-95
2023/05/05 03:33:10;;;;;;;9.23;4.30;;;10.70;99.90;;;;;;5096605;28;20036;-95
2023/05/05 03:35:36;;;;;;;11.55;3.25;;;10.20;99.90;;;;;;5093771;28;20043;-95
2023/05/05 03:38:02;;;;;;;12.27;3.95;;;10.20;99.90;;;;;;5078199;28;20054;-94
2023/05/05 03:40:28;;;;;;;7.28;4.13;;;11.00;99.90;;;;;;5091567;28;20044;-96
2023/05/05 03:42:53;;;;;;;7.85;4.00;;;10.20;99.90;;;;;;5092339;28;20483;-96
2023/05/05 03:45:19;;;;;;;11.45;4.03;;;9.70;99.90;;;;;;5075170;28;20046;-95
2023/05/05 03:47:45;;;;;;;6.85;3.65;;;10.20;99.90;;;;;;5091486;28;20035;-96
2023/05/05 03:50:11;;;;;;;8.40;3.63;;;10.20;99.90;;;;;;5092744;28;20051;-96
2023/05/05 03:52:36;;;;;;;6.88;3.72;;;10.20;99.90;;;;;;5091162;28;20054;-95
2023/05/05 03:55:02;;;;;;;14.05;4.00;;;10.20;99.90;;;;;;5109928;28;20130;-95
2023/05/05 03:57:28;;;;;;;7.85;3.20;;;10.30;99.90;;;;;;5074681;28;20517;-96
2023/05/05 03:59:54;;;;;;;9.10;4.05;;;10.30;99.90;;;;;;5091850;28;20040;-95
2023/05/05 04:02:20;;;;;;;19.23;5.05;;;10.30;99.90;;;;;;5074197;28;20043;-95
2023/05/05 04:04:46;;;;;;;5.95;3.60;;;10.30;99.90;;;;;;5074252;28;20043;-95
2023/05/05 04:07:11;;;;;;;11.63;4.68;;;10.30;99.90;;;;;;5074272;28;20036;-95
2023/05/05 04:09:43;;;;;;;10.88;3.78;;;9.50;99.90;;;;;;5076879;28;20047;-95
2023/05/05 04:12:13;;;;;;;8.80;3.70;;;10.40;99.90;;;;;;5077839;28;20079;-95
2023/05/05 04:14:39;;;;;;;7.20;3.90;;;10.00;99.90;;;;;;5118526;28;20131;-94
2023/05/05 04:17:05;;;;;;;7.55;3.22;;;10.50;99.90;;;;;;5114060;28;20174;-95
2023/05/05 04:19:37;;;;;;;7.03;2.93;;;10.50;99.90;;;;;;5093400;28;20050;-94
2023/05/05 04:22:03;;;;;;;9.00;3.88;;;11.10;99.90;;;;;;5073292;28;20134;-95
2023/05/05 04:24:29;;;;;;;13.38;3.60;;;10.60;99.90;;;;;;5090675;28;20044;-93
2023/05/05 04:26:55;;;;;;;7.22;3.13;;;10.70;99.90;;;;;;5096740;28;20039;-96
2023/05/05 04:29:22;;;;;;;10.85;3.75;;;10.70;99.90;;;;;;5099301;28;20072;-95
2023/05/05 04:31:49;;;;;;;9.45;3.55;;;10.70;99.90;;;;;;5099534;28;20114;-95
2023/05/05 04:34:15;;;;;;;11.35;4.35;;;10.70;99.90;;;;;;5114855;28;20511;-94
2023/05/05 04:36:40;;;;;;;9.90;3.53;;;10.80;99.90;;;;;;5090450;28;20052;-96
2023/05/05 04:39:07;;;;;;;11.07;3.88;;;11.30;99.90;;;;;;5078726;28;20080;-96
2023/05/05 04:41:33;;;;;;;16.42;4.28;;;10.80;99.90;;;;;;5093459;28;20040;-96
2023/05/05 04:43:59;;;;;;;12.38;4.10;;;10.80;99.90;;;;;;5072632;28;20044;-95
2023/05/05 04:46:25;;;;;;;9.20;4.32;;;10.80;99.90;;;;;;5073431;28;20042;-93
2023/05/05 04:48:51;;;;;;;13.30;4.45;;;10.70;99.90;;;;;;5092335;28;20043;-96
2023/05/05 04:51:17;;;;;;;13.48;4.70;;;10.90;99.90;;;;;;5091108;28;20419;-96
2023/05/05 04:53:42;;;;;;;10.48;5.03;;;11.00;99.90;;;;;;5089591;28;20122;-95
2023/05/05 04:56:08;;;;;;;8.75;3.97;;;10.70;99.90;;;;;;5107401;27;20071;-93
2023/05/05 04:58:34;;;;;;;7.75;3.80;;;10.60;99.90;;;;;;5073303;28;20092;-94
2023/05/05 05:01:00;;;;;;;5.65;3.88;;;10.60;99.90;;;;;;5072583;28;20125;-89
2023/05/05 05:03:26;;;;;;;11.88;4.35;;;10.50;99.90;;;;;;5106143;28;20051;-93
2023/05/05 05:05:52;;;;;;;10.13;4.15;;;10.50;99.90;;;;;;5071770;28;20476;-91
2023/05/05 05:08:18;;;;;;;10.40;4.13;;;10.40;99.90;;;;;;5073049;28;20047;-91
2023/05/05 05:10:44;;;;;;;13.23;4.60;;;10.30;99.90;;;;;;5072557;28;20039;-89
2023/05/05 05:13:10;;;;;;;14.10;4.90;;;10.30;99.90;;;;;;5073507;28;20112;-90
2023/05/05 05:15:38;;;;;;;8.88;4.28;;;10.30;99.90;;;;;;5089535;28;20047;-88
2023/05/05 05:18:05;;;;;;;10.75;5.55;;;11.00;99.90;;;;;;5089603;28;20047;-93
2023/05/05 05:20:31;;;;;;;7.65;4.30;;;10.10;99.90;;;;;;5106902;28;20035;-92
2023/05/05 05:22:56;;;;;;;15.73;4.15;;;10.10;99.90;;;;;;5088181;28;20052;-91
2023/05/05 05:25:23;;;;;;;11.50;5.18;;;10.00;99.90;;;;;;5071717;28;20099;-87
2023/05/05 05:27:48;;;;;;;12.20;6.43;;;10.00;99.90;;;;;;5088518;28;20047;-88
2023/05/05 05:30:14;;;;;;;10.20;4.38;;;10.00;99.90;;;;;;5105142;28;20048;-89
2023/05/05 05:32:40;;;;;;;6.88;4.30;;;9.90;99.90;;;;;;5088011;28;20044;-93
2023/05/05 05:35:06;;;;;;;15.40;5.93;;;9.90;99.90;;;;;;5088362;28;20063;-84
2023/05/05 05:37:33;;;;;;;12.07;4.20;;;9.90;99.90;;;;;;5070999;28;20035;-87
2023/05/05 05:39:59;;;;;;;12.93;4.55;;;10.50;99.90;;;;;;5106747;28;20400;-86
2023/05/05 05:42:24;;;;;;;10.50;5.20;;;9.90;99.90;;;;;;5095281;28;20036;-86
2023/05/05 05:44:50;;;;;;;8.95;4.32;;;9.90;99.90;;;;;;5090676;28;20044;-86
2023/05/05 05:47:16;;;;;;;8.45;4.18;;;9.90;99.90;;;;;;5088575;28;20043;-88
2023/05/05 05:49:41;;;;;;;11.35;4.60;;;10.60;99.90;;;;;;5070713;28;20126;-87
2023/05/05 05:52:07;;;;;;;8.63;4.78;;;10.00;99.90;;;;;;5069182;28;20043;-86
2023/05/05 05:54:34;;;;;;;10.93;4.82;;;10.40;99.90;;;;;;5087075;28;20047;-87
2023/05/05 05:57:01;;;;;;;13.32;4.38;;;10.20;99.90;;;;;;5070826;28;20369;-85
2023/05/05 05:59:27;;;;;;;11.95;4.15;;;10.30;99.90;;;;;;5104174;28;20051;-84
2023/05/05 06:01:54;;;;;;;7.28;4.07;;;10.40;99.90;;;;;;5103877;28;20043;-87
2023/05/05 06:04:20;;;;;;;7.22;4.57;;;10.60;99.90;;;;;;5103792;28;20067;-84
2023/05/05 06:06:45;;;;;;;12.93;4.72;;;11.10;99.90;;;;;;5086716;28;20071;-84
2023/05/05 06:09:11;;;;;;;6.57;4.40;;;10.80;99.90;;;;;;5086493;28;20150;-83
2023/05/05 06:11:37;;;;;;;14.27;4.93;;;10.90;99.90;;;;;;5103473;28;20156;-82
2023/05/05 06:14:03;;;;;;;15.43;4.85;;;11.00;99.90;;;;;;5086211;28;20047;-85
2023/05/05 06:16:29;;;;;;;8.98;4.28;;;10.90;99.90;;;;;;5103657;28;20036;-81
2023/05/05 06:18:54;;;;;;;6.30;4.30;;;11.00;99.90;;;;;;5069761;28;20146;-83
2023/05/05 06:21:20;;;;;;;7.47;3.83;;;10.90;99.90;;;;;;5086507;28;20040;-82
2023/05/05 06:23:47;;;;;;;9.23;4.40;;;11.00;99.90;;;;;;5086553;28;20488;-82
2023/05/05 06:26:13;;;;;;;7.53;4.50;;;10.90;99.90;;;;;;5086133;28;20100;-83
2023/05/05 06:28:39;;;;;;;11.02;4.47;;;10.90;99.90;;;;;;5086903;28;20044;-82
2023/05/05 06:31:05;;;;;;;11.15;6.10;;;11.00;99.90;;;;;;5069553;28;20396;-85
2023/05/05 06:33:30;;;;;;;10.27;4.93;;;10.90;99.90;;;;;;5086109;28;20044;-83
2023/05/05 06:35:56;;;;;;;13.52;4.75;;;11.00;99.90;;;;;;5086286;28;20054;-82
2023/05/05 06:38:22;;;;;;;8.15;5.05;;;11.00;99.90;;;;;;5069758;28;20109;-83
2023/05/05 06:40:48;;;;;;;12.80;4.68;;;11.10;99.90;;;;;;5086333;28;20529;-84
2023/05/05 06:43:15;;;;;;;10.65;4.75;;;11.20;99.90;;;;;;5086688;28;20400;-83
2023/05/05 06:45:40;;;;;;;13.95;5.55;;;11.30;99.90;;;;;;5086143;28;20131;-84
2023/05/05 06:48:06;;;;;;;8.07;3.88;;;11.40;99.90;;;;;;5102966;28;20119;-88
2023/05/05 06:50:32;;;;;;;10.00;4.93;;;11.40;99.90;;;;;;5103064;28;20066;-89
2023/05/05 06:52:58;;;;;;;12.60;5.32;;;11.50;99.90;;;;;;5103653;28;20067;-90
2023/05/05 06:55:24;;;;;;;10.13;5.10;;;11.70;99.90;;;;;;5103115;28;20046;-86
2023/05/05 06:57:50;;;;;;;10.35;4.70;;;11.50;99.90;;;;;;5103300;28;20071;-83
2023/05/05 07:00:16;;;;;;;9.07;5.15;;;11.60;99.90;;;;;;5086024;28;20522;-83
2023/05/05 07:02:42;;;;;;;6.38;3.95;;;11.60;99.90;;;;;;5069916;28;20035;-83
2023/05/05 07:05:08;;;;;;;10.63;4.90;;;11.60;99.90;;;;;;5089730;28;20389;-87
2023/05/05 07:07:35;;;;;;;14.38;5.05;;;11.60;99.90;;;;;;5072843;28;20065;-83
2023/05/05 07:10:00;;;;;;;12.75;5.38;;;11.70;99.90;;;;;;5106517;28;20057;-84
2023/05/05 07:12:29;;;;;;;14.35;4.82;;;11.80;99.90;;;;;;5107260;28;20043;-84
2023/05/05 07:14:55;;;;;;;8.48;4.80;;;11.90;99.90;;;;;;5089495;28;20075;-84
2023/05/05 07:17:21;;;;;;;9.68;4.95;;;11.90;99.90;;;;;;5090191;28;20082;-83
2023/05/05 07:19:47;;;;;;;7.28;4.75;;;12.00;99.90;;;;;;5106691;28;20036;-83
2023/05/05 07:22:13;;;;;;;12.98;5.18;;;12.10;99.90;;;;;;5072597;28;20047;-83
2023/05/05 07:24:38;;;;;;;8.30;5.30;;;12.20;99.90;;;;;;5106514;28;20046;-83
2023/05/05 07:27:05;;;;;;;11.38;4.95;;;12.30;99.90;;;;;;5089800;28;20086;-83
2023/05/05 07:29:31;;;;;;;9.75;4.60;;;12.40;99.90;;;;;;5090291;28;20082;-84
2023/05/05 07:31:57;;;;;;;7.70;4.55;;;12.50;99.90;;;;;;5106454;28;20642;-86
2023/05/05 07:34:22;;;;;;;11.25;4.97;;;12.70;99.90;;;;;;5072918;28;20071;-84
2023/05/05 07:36:51;;;;;;;11.50;5.47;;;12.80;99.90;;;;;;5072776;28;20396;-83
2023/05/05 07:39:18;;;;;;;8.90;4.65;;;13.60;99.90;;;;;;5088730;28;20055;-84
2023/05/05 07:41:44;;;;;;;11.50;5.43;;;13.00;99.90;;;;;;5106817;27;20562;-84
2023/05/05 07:44:10;;;;;;;11.93;5.35;;;13.10;99.90;;;;;;5089161;28;20086;-82
2023/05/05 07:46:35;;;;;;;7.85;4.60;;;13.20;99.90;;;;;;5089810;28;20407;-82
2023/05/05 07:49:01;;;;;;;12.70;5.18;;;13.30;99.90;;;;;;5106034;28;20048;-87
2023/05/05 07:51:27;;;;;;;11.35;5.28;;;13.40;99.90;;;;;;5072363;28;20476;-84
2023/05/05 07:53:52;;;;;;;9.00;5.32;;;13.40;99.90;;;;;;5072589;28;20130;-84
2023/05/05 07:56:18;;;;;;;9.73;5.00;;;13.50;99.90;;;;;;5088777;28;20084;-83
2023/05/05 07:58:44;;;;;;;7.43;4.85;;;13.60;99.90;;;;;;5089215;28;20137;-83
2023/05/05 08:01:11;;;;;;;8.48;5.45;;;13.70;99.90;;;;;;5088499;28;20047;-83
2023/05/05 08:03:37;;;;;;;14.75;5.20;;;13.70;99.90;;;;;;5089650;28;20047;-83
2023/05/05 08:06:10;;;;;;;6.45;4.97;;;13.80;99.90;;;;;;5089631;28;20039;-83
2023/05/05 08:08:36;;;;;;;14.98;5.75;;;13.90;99.90;;;;;;5105969;28;20043;-83
2023/05/05 08:11:05;;;;;;;7.22;4.95;;;14.00;99.90;;;;;;5088665;28;20349;-82
2023/05/05 08:13:31;;;;;;;7.50;5.30;;;14.20;99.90;;;;;;5106483;27;20441;-82
2023/05/05 08:15:56;;;;;;;9.15;5.10;;;14.40;99.90;;;;;;5087813;28;20377;-82
2023/05/05 08:18:23;;;;;;;8.95;5.53;;;14.50;99.90;;;;;;5105225;28;20040;-82
2023/05/05 08:20:49;;;;;;;11.43;6.22;;;14.70;99.90;;;;;;5105502;28;20565;-82
2023/05/05 08:23:15;;;;;;;8.02;5.35;;;14.90;99.90;;;;;;5071745;28;20043;-82
2023/05/05 08:25:42;;;;;;;8.43;5.40;;;15.20;99.90;;;;;;5071666;28;20047;-82
2023/05/05 08:28:08;;;;;;;11.60;6.22;;;15.50;99.90;;;;;;5088360;28;20111;-82
2023/05/05 08:30:35;;;;;;;8.88;5.97;;;15.60;99.90;;;;;;5105238;28;20089;-82
2023/05/05 08:33:00;;;;;;;8.10;5.55;;;15.80;99.90;;;;;;5088502;28;20320;-82
2023/05/05 08:35:26;;;;;;;16.42;6.30;;;15.80;99.90;;;;;;5071087;28;20122;-82
2023/05/05 08:37:52;;;;;;;7.35;5.60;;;15.80;99.90;;;;;;5088211;28;20074;-82
2023/05/05 08:40:20;;;;;;;7.47;4.88;;;15.80;99.90;;;;;;5105385;28;20096;-83
2023/05/05 08:42:45;;;;;;;15.23;6.53;;;15.80;99.90;;;;;;5105130;28;20044;-82
2023/05/05 08:45:12;;;;;;;9.13;5.70;;;15.90;99.90;;;;;;5088302;28;20146;-82
2023/05/05 08:47:38;;;;;;;15.90;6.40;;;16.00;99.90;;;;;;5088276;28;20504;-82
2023/05/05 08:50:04;;;;;;;14.50;7.00;;;16.10;99.90;;;;;;5104534;28;20126;-82
2023/05/05 08:52:50;;;;;;;8.82;6.63;;;16.20;99.90;;;;;;5087446;28;20051;-82
2023/05/05 08:55:23;;;;;;;11.73;6.63;;;16.30;99.90;;;;;;5087948;28;20051;-83
2023/05/05 08:57:56;;;;;;;12.98;6.80;;;16.50;99.90;;;;;;5105359;28;20122;-83
2023/05/05 09:00:22;;;;;;;12.93;6.07;;;16.60;99.90;;;;;;5104272;28;20036;-82
2023/05/05 09:02:49;;;;;;;13.20;6.40;;;16.60;99.90;;;;;;5104448;28;20047;-83
2023/05/05 09:05:15;;;;;;;14.55;7.45;;;16.60;99.90;;;;;;5087445;28;20051;-83
2023/05/05 09:07:42;;;;;;;12.88;6.97;;;16.70;99.90;;;;;;5104416;28;20135;-83
2023/05/05 09:10:10;;;;;;;12.02;6.18;;;16.80;99.90;;;;;;5088583;28;20051;-82
2023/05/05 09:12:39;;;;;;;11.52;6.85;;;16.80;99.90;;;;;;5087950;28;20047;-83
2023/05/05 09:15:07;;;;;;;10.57;6.47;;;16.90;99.90;;;;;;5104341;28;20044;-83
2023/05/05 09:17:32;;;;;;;9.25;6.38;;;17.00;99.90;;;;;;5086958;28;20047;-82
2023/05/05 09:20:06;;;;;;;12.02;6.25;;;17.10;99.90;;;;;;5070339;28;20039;-83
2023/05/05 09:22:37;;;;;;;11.23;6.78;;;17.00;99.90;;;;;;5086807;28;20423;-83
2023/05/05 09:25:04;;;;;;;17.67;7.50;;;17.00;99.90;;;;;;5087077;28;20050;-82
2023/05/05 09:27:34;;;;;;;8.40;6.53;;;17.00;99.90;;;;;;5086323;28;20193;-82
2023/05/05 09:30:00;;;;;;;8.85;7.10;;;17.10;99.90;;;;;;5087481;28;20450;-81
2023/05/05 09:32:26;;;;;;;13.88;7.18;;;17.20;99.90;;;;;;5104396;28;20045;-82
2023/05/05 09:34:59;;;;;;;16.40;7.10;;;17.30;99.90;;;;;;5103588;28;20055;-82
2023/05/05 09:37:29;;;;;;;12.00;7.72;;;17.50;99.90;;;;;;5103886;28;20079;-82
2023/05/05 09:39:57;;;;;;;8.25;7.45;;;17.60;99.90;;;;;;5087488;28;20048;-82
2023/05/05 09:42:23;;;;;;;11.60;7.63;;;17.70;99.90;;;;;;5104036;28;20083;-82
2023/05/05 09:44:48;;;;;;;12.63;8.05;;;17.90;99.90;;;;;;5104627;28;20075;-82
2023/05/05 09:47:14;;;;;;;16.75;7.75;;;18.20;99.90;;;;;;5103699;28;20050;-81
2023/05/05 09:49:40;;;;;;;13.82;7.43;;;18.30;99.90;;;;;;5103871;28;20434;-82
2023/05/05 09:52:15;;;;;;;13.25;7.32;;;18.40;99.90;;;;;;5087392;28;20039;-82
2023/05/05 09:54:42;;;;;;;15.05;8.48;;;18.50;99.90;;;;;;5103500;28;20048;-81
2023/05/05 09:57:23;;;;;;;11.00;7.80;;;18.60;99.90;;;;;;5104481;28;20039;-82
2023/05/05 09:59:57;;;;;;;11.38;7.38;;;18.50;99.90;;;;;;5105931;28;20453;-83
2023/05/05 10:02:33;;;;;;;12.00;7.93;;;18.40;99.90;;;;;;5104045;28;20051;-83
2023/05/05 10:05:07;;;;;;;15.52;8.50;;;18.30;99.90;;;;;;5103969;28;20496;-83
2023/05/05 10:07:33;;;;;;;13.57;8.48;;;18.10;99.90;;;;;;5103800;28;20512;-83
2023/05/05 10:09:59;;;;;;;10.80;8.40;;;18.00;99.90;;;;;;5104590;28;20598;-82
2023/05/05 10:12:26;;;;;;;14.40;8.52;;;17.90;99.90;;;;;;5086863;28;20407;-81
2023/05/05 10:14:55;;;;;;;12.48;8.00;;;17.90;99.90;;;;;;5070851;28;20126;-82
2023/05/05 10:17:22;;;;;;;13.63;8.50;;;18.10;99.90;;;;;;5104141;28;20434;-82
2023/05/05 10:19:55;;;;;;;18.58;8.88;;;18.30;99.90;;;;;;5086550;28;20104;-82
2023/05/05 10:22:22;;;;;;;18.38;10.15;;;18.50;99.90;;;;;;5103764;28;20063;-87
2023/05/05 10:25:08;;;;;;;10.77;8.63;;;18.80;99.90;;;;;;5120787;27;20042;-82
2023/05/05 10:27:42;;;;;;;11.15;8.38;;;19.10;99.90;;;;;;5104129;28;20047;-83
2023/05/05 10:30:19;;;;;;;12.02;8.88;;;19.40;99.90;;;;;;5103552;28;20531;-83
2023/05/05 10:32:53;;;;;;;15.65;9.90;;;19.60;99.90;;;;;;5086383;28;20052;-83
2023/05/05 10:35:25;;;;;;;12.80;9.40;;;19.80;99.90;;;;;;5103405;28;20459;-82
2023/05/05 10:37:52;;;;;;;15.13;8.68;;;19.90;99.90;;;;;;5087283;28;20139;-83
2023/05/05 10:40:21;;;;;;;15.02;9.10;;;20.10;99.90;;;;;;5108412;28;20051;-83
2023/05/05 10:42:48;;;;;;;17.90;9.98;;;20.20;99.90;;;;;;5108428;28;20039;-81
2023/05/05 10:45:15;;;;;;;14.27;10.38;;;20.20;99.90;;;;;;5090605;28;20039;-81
2023/05/05 10:47:43;;;;;;;12.65;10.23;;;20.10;99.90;;;;;;5124924;27;20043;-82
2023/05/05 10:50:27;;;;;;;14.98;9.77;;;20.30;99.90;;;;;;5090785;28;20040;-83
2023/05/05 10:53:17;;;;;;;11.55;10.13;;;20.60;99.90;;;;;;5090614;28;20091;-87
2023/05/05 10:55:51;;;;;;;13.40;10.00;;;20.80;99.90;;;;;;5107467;28;20147;-81
2023/05/05 10:58:33;;;;;;;13.68;10.63;;;20.90;99.90;;;;;;5090549;28;20050;-83
2023/05/05 11:00:59;;;;;;;15.30;10.52;;;21.10;99.90;;;;;;5090596;28;20161;-83
2023/05/05 11:03:25;;;;;;;13.48;10.88;;;21.10;99.90;;;;;;5090652;28;20079;-82
2023/05/05 11:06:06;;;;;;;21.05;12.45;;;21.00;99.90;;;;;;5107802;28;20408;-81
2023/05/05 11:08:34;;;;;;;22.40;12.57;;;20.90;99.90;;;;;;5124589;27;20043;-83
2023/05/05 11:11:00;;;;;;;15.13;12.85;;;20.90;99.90;;;;;;5106705;28;20050;-82
2023/05/05 11:13:26;;;;;;;17.33;12.55;;;20.90;99.90;;;;;;5107176;28;20047;-82
2023/05/05 11:15:53;;;;;;;17.80;11.85;;;20.90;99.90;;;;;;5089962;28;20400;-83
2023/05/05 11:18:29;;;;;;;17.65;13.80;;;21.00;99.90;;;;;;5073092;28;20048;-81
2023/05/05 11:20:58;;;;;;;19.80;13.77;;;21.10;99.90;;;;;;5123957;27;20201;-81
2023/05/05 11:23:25;;;;;;;19.90;13.90;;;21.20;99.90;;;;;;5090154;28;20056;-81
2023/05/05 11:25:51;;;;;;;31.35;14.45;;;21.20;99.90;;;;;;5107174;28;20055;-82
2023/05/05 11:28:24;;;;;;;25.48;13.68;;;21.20;99.90;;;;;;5089471;28;20205;-82
2023/05/05 11:30:57;;;;;;;20.10;13.68;;;21.40;99.90;;;;;;5090470;28;20403;-81
2023/05/05 11:33:37;;;;;;;17.50;12.43;;;21.70;99.90;;;;;;5123447;27;20480;-81
2023/05/05 11:36:04;;;;;;;17.80;13.52;;;22.00;99.90;;;;;;5107650;28;20934;-81
2023/05/05 11:38:55;;;;;;;21.05;14.02;;;22.10;99.90;;;;;;5123235;27;20040;-81
2023/05/05 11:41:32;;;;;;;22.45;13.38;;;22.20;99.90;;;;;;5088333;28;20083;-81
2023/05/05 11:44:12;;;;;;;21.55;13.32;;;22.20;99.90;;;;;;5123350;27;20245;-82
2023/05/05 11:46:50;;;;;;;15.90;12.63;;;22.20;99.90;;;;;;5073010;28;20373;-82
2023/05/05 11:49:32;;;;;;;26.05;14.05;;;21.90;99.90;;;;;;5088596;28;20131;-82
2023/05/05 11:52:07;;;;;;;18.27;13.07;;;21.80;99.90;;;;;;5088530;28;20043;-82
2023/05/05 11:54:41;;;;;;;15.93;12.65;;;21.70;99.90;;;;;;5123064;27;20649;-82
2023/05/05 11:57:07;;;;;;;18.42;10.15;;;21.70;99.90;;;;;;5124343;27;20377;-82
2023/05/05 11:59:37;;;;;;;16.55;9.35;;;21.80;99.90;;;;;;5072761;28;20043;-82
2023/05/05 12:02:03;;;;;;;15.38;10.38;;;21.90;99.90;;;;;;5089732;28;20613;-85
2023/05/05 12:04:30;;;;;;;13.35;10.52;;;22.10;99.90;;;;;;5106475;28;20044;-84
2023/05/05 12:06:59;;;;;;;14.35;10.50;;;22.10;99.90;;;;;;5122946;27;20551;-84
2023/05/05 12:09:25;;;;;;;14.35;9.18;;;22.10;99.90;;;;;;5105666;28;20484;-84
2023/05/05 12:11:56;;;;;;;10.13;7.65;;;22.20;99.90;;;;;;5105526;28;20055;-84
2023/05/05 12:14:23;;;;;;;16.67;8.73;;;22.40;99.90;;;;;;5089113;28;20047;-84
2023/05/05 12:16:55;;;;;;;14.02;10.50;;;22.40;99.90;;;;;;5071750;28;20043;-84
2023/05/05 12:19:21;;;;;;;;;;;22.50;99.90;;;;;;5089278;28;20039;-84
2023/05/05 12:21:46;;;;;;;12.82;8.30;;;22.40;99.90;;;;;;5105140;28;19926;-84
2023/05/05 12:24:13;;;;;;;11.88;8.05;;;22.40;99.90;;;;;;5106663;28;20039;-84
2023/05/05 12:26:39;;;;;;;11.98;7.93;;;22.60;99.90;;;;;;5105700;28;20047;-84
2023/05/05 12:29:05;;;;;;;12.63;9.15;;;22.60;99.90;;;;;;5109034;28;20047;-83
2023/05/05 12:31:38;;;;;;;11.95;9.35;;;22.80;99.90;;;;;;5090777;28;20499;-84
2023/05/05 12:34:05;;;;;;;13.95;8.38;;;22.80;99.90;;;;;;5108355;28;20054;-84
2023/05/05 12:36:38;;;;;;;13.50;8.82;;;22.60;99.90;;;;;;5107841;28;20055;-85
2023/05/05 12:39:04;;;;;;;12.95;8.77;;;22.30;99.90;;;;;;5106348;28;20079;-85
2023/05/05 12:41:33;;;;;;;12.57;8.95;;;22.10;99.90;;;;;;5106607;28;20428;-86
2023/05/05 12:44:00;;;;;;;12.65;8.65;;;21.90;99.90;;;;;;5106770;28;20051;-86
2023/05/05 12:46:28;;;;;;;11.27;8.93;;;21.80;99.90;;;;;;5106286;28;20472;-86
2023/05/05 12:49:05;;;;;;;12.10;9.07;;;21.60;99.90;;;;;;5105700;28;20039;-87